Time;durP1;ratioP1;P1;durP2;ratioP2;P2;SDS_P1;SDS_P2;PMS_P1;PMS_P2;Temp;Humidity;BMP_temperature;BMP_pressure;BME280_temperature;BME280_humidity;BME280_pressure;Samples;Min_cycle;Max_cycle;Signal;HPM_P1;HPM_P2
2023/08/06 00:01:25;;;;;;;2.85;1.85;;;;;;;;;;5052018;28;20375;-80
2023/08/06 00:03:50;;;;;;;2.00;1.67;;;;;;;;;;5051900;28;20535;-80
2023/08/06 00:06:16;;;;;;;2.92;1.85;;;;;;;;;;5051819;28;20069;-81
2023/08/06 00:08:41;;;;;;;4.03;1.85;;;;;;;;;;5052928;28;20033;-81
2023/08/06 00:11:06;;;;;;;1.77;1.67;;;;;;;;;;5053047;28;20025;-81
2023/08/06 00:13:32;;;;;;;2.45;1.70;;;;;;;;;;5034958;28;20083;-81
2023/08/06 00:16:09;;;;;;;1.95;1.50;;;;;;;;;;5052893;28;20082;-81
2023/08/06 00:18:34;;;;;;;1.85;1.70;;;;;;;;;;5051650;28;20020;-81
2023/08/06 00:20:59;;;;;;;2.22;1.63;;;;;;;;;;5034981;28;20528;-81
2023/08/06 00:23:25;;;;;;;2.33;1.77;;;;;;;;;;5057016;28;20084;-81
2023/08/06 00:25:50;;;;;;;2.10;1.67;;;;;;;;;;5056903;28;20079;-81
2023/08/06 00:28:15;;;;;;;3.50;1.88;;;;;;;;;;5055497;28;20120;-81
2023/08/06 00:30:41;;;;;;;3.22;1.65;;;;;;;;;;5055452;28;20515;-81
2023/08/06 00:33:06;;;;;;;2.00;1.55;;;;;;;;;;5055594;28;20033;-81
2023/08/06 00:35:31;;;;;;;2.50;1.70;;;;;;;;;;5055829;28;20064;-80
2023/08/06 00:37:57;;;;;;;2.22;1.73;;;;;;;;;;5056770;28;20036;-81
2023/08/06 00:40:22;;;;;;;4.05;2.20;;;;;;;;;;5056389;28;20021;-80
2023/08/06 00:42:48;;;;;;;2.95;2.03;;;;;;;;;;5038486;28;20118;-81
2023/08/06 00:45:13;;;;;;;2.33;1.65;;;;;;;;;;5056561;28;20114;-82
2023/08/06 00:47:39;;;;;;;3.72;2.00;;;;;;;;;;5056507;28;20036;-81
2023/08/06 00:50:07;;;;;;;2.95;2.17;;;;;;;;;;5055130;28;20392;-81
2023/08/06 00:52:32;;;;;;;3.00;2.00;;;;;;;;;;5054916;28;20029;-81
2023/08/06 00:54:57;;;;;;;6.38;1.80;;;;;;;;;;5054969;28;20055;-81
2023/08/06 00:57:25;;;;;;;2.03;1.73;;;;;;;;;;5054810;28;20127;-81
2023/08/06 00:59:51;;;;;;;4.20;2.28;;;;;;;;;;5054869;28;20021;-81
2023/08/06 01:02:16;;;;;;;2.63;1.90;;;;;;;;;;5054649;28;20063;-81
2023/08/06 01:04:41;;;;;;;2.08;1.70;;;;;;;;;;5038008;28;20497;-81
2023/08/06 01:07:19;;;;;;;2.17;1.70;;;;;;;;;;5055909;28;20452;-81
2023/08/06 01:09:57;;;;;;;2.17;1.90;;;;;;;;;;5056132;28;20078;-81
2023/08/06 01:12:46;;;;;;;4.28;1.98;;;;;;;;;;5054887;28;20044;-81
2023/08/06 01:15:24;;;;;;;2.72;1.95;;;;;;;;;;5038159;28;20021;-81
2023/08/06 01:17:50;;;;;;;2.28;1.63;;;;;;;;;;5037859;28;20021;-81
2023/08/06 01:20:15;;;;;;;1.90;1.67;;;;;;;;;;5054480;28;20048;-81
2023/08/06 01:22:41;;;;;;;1.88;1.77;;;;;;;;;;5055591;28;20037;-81
2023/08/06 01:25:07;;;;;;;2.55;1.92;;;;;;;;;;5055829;28;20462;-81
2023/08/06 01:27:36;;;;;;;3.35;2.30;;;;;;;;;;5054698;28;20143;-81
2023/08/06 01:30:10;;;;;;;1.98;1.88;;;;;;;;;;5055372;28;20079;-81
2023/08/06 01:32:39;;;;;;;3.97;2.53;;;;;;;;;;5055088;28;20029;-81
2023/08/06 01:35:05;;;;;;;4.60;2.08;;;;;;;;;;5055437;28;20036;-81
2023/08/06 01:37:31;;;;;;;2.13;2.03;;;;;;;;;;5055257;28;20120;-81
2023/08/06 01:39:57;;;;;;;2.80;2.35;;;;;;;;;;5037535;28;20040;-81
2023/08/06 01:42:22;;;;;;;2.20;1.70;;;;;;;;;;5055540;28;20028;-81
2023/08/06 01:44:48;;;;;;;2.40;2.17;;;;;;;;;;5054127;28;20396;-81
2023/08/06 01:47:13;;;;;;;2.40;2.20;;;;;;;;;;5055446;28;20170;-81
2023/08/06 01:49:38;;;;;;;2.28;1.80;;;;;;;;;;5054065;28;20033;-81
2023/08/06 01:52:04;;;;;;;4.18;2.95;;;;;;;;;;5055085;28;20430;-81
2023/08/06 01:54:30;;;;;;;4.20;2.13;;;;;;;;;;5053730;28;20045;-81
2023/08/06 01:56:55;;;;;;;4.60;2.67;;;;;;;;;;5053785;28;20111;-81
2023/08/06 01:59:20;;;;;;;3.22;2.00;;;;;;;;;;5054276;28;20056;-81
2023/08/06 02:01:46;;;;;;;2.92;2.55;;;;;;;;;;5037252;28;20144;-81
2023/08/06 02:04:11;;;;;;;2.30;2.10;;;;;;;;;;5036819;28;20036;-81
2023/08/06 02:06:36;;;;;;;2.40;2.15;;;;;;;;;;5054797;28;20048;-81
2023/08/06 02:09:02;;;;;;;3.28;2.22;;;;;;;;;;5055026;28;20029;-82
2023/08/06 02:11:27;;;;;;;2.55;2.30;;;;;;;;;;5053671;28;20379;-82
2023/08/06 02:13:53;;;;;;;2.67;2.30;;;;;;;;;;5054884;28;20035;-82
2023/08/06 02:16:18;;;;;;;2.95;2.00;;;;;;;;;;5054652;28;20450;-82
2023/08/06 02:18:43;;;;;;;3.17;2.63;;;;;;;;;;5036784;28;20041;-81
2023/08/06 02:21:09;;;;;;;2.55;1.98;;;;;;;;;;5054831;28;20047;-82
2023/08/06 02:23:34;;;;;;;2.50;2.25;;;;;;;;;;5054722;28;20033;-81
2023/08/06 02:26:04;;;;;;;1.90;1.80;;;;;;;;;;5053481;28;20025;-81
2023/08/06 02:28:30;;;;;;;3.55;2.10;;;;;;;;;;5036389;28;20415;-81
2023/08/06 02:30:55;;;;;;;3.85;2.20;;;;;;;;;;5052837;28;20488;-81
2023/08/06 02:33:21;;;;;;;3.10;2.65;;;;;;;;;;5054476;28;20036;-81
2023/08/06 02:35:46;;;;;;;5.22;2.15;;;;;;;;;;5054456;28;20033;-81
2023/08/06 02:38:12;;;;;;;3.25;2.40;;;;;;;;;;5054432;28;20115;-81
2023/08/06 02:40:45;;;;;;;2.85;2.28;;;;;;;;;;5054175;28;20435;-82
2023/08/06 02:43:11;;;;;;;;;;;;;;;;;;5036494;28;20029;-81
2023/08/06 02:45:36;;;;;;;2.75;1.80;;;;;;;;;;5085719;28;19999;-81
2023/08/06 02:48:02;;;;;;;2.30;2.10;;;;;;;;;;5054471;28;20041;-81
2023/08/06 02:50:28;;;;;;;2.75;2.05;;;;;;;;;;5052809;28;20069;-81
2023/08/06 02:52:53;;;;;;;3.10;2.60;;;;;;;;;;5052708;28;20392;-81
2023/08/06 02:55:18;;;;;;;3.95;3.05;;;;;;;;;;5052931;28;20380;-81
2023/08/06 02:57:44;;;;;;;3.17;2.30;;;;;;;;;;5036261;28;20032;-81
2023/08/06 03:00:11;;;;;;;2.25;1.98;;;;;;;;;;5054023;28;20468;-81
2023/08/06 03:02:37;;;;;;;2.13;1.88;;;;;;;;;;5052408;28;20500;-82
2023/08/06 03:05:03;;;;;;;1.70;1.60;;;;;;;;;;5052479;28;20040;-82
2023/08/06 03:07:28;;;;;;;3.72;2.38;;;;;;;;;;5054161;28;20386;-81
2023/08/06 03:09:54;;;;;;;4.05;2.47;;;;;;;;;;5052705;28;20159;-81
2023/08/06 03:12:19;;;;;;;4.68;3.08;;;;;;;;;;5053865;28;20033;-81
2023/08/06 03:14:44;;;;;;;2.50;2.30;;;;;;;;;;5053589;28;20483;-82
2023/08/06 03:17:10;;;;;;;3.15;2.85;;;;;;;;;;5053474;28;20109;-82
2023/08/06 03:19:35;;;;;;;7.70;3.47;;;;;;;;;;5053489;28;20090;-81
2023/08/06 03:22:00;;;;;;;2.20;2.00;;;;;;;;;;5035544;28;20108;-82
2023/08/06 03:24:26;;;;;;;1.85;1.75;;;;;;;;;;5052440;28;20087;-81
2023/08/06 03:26:51;;;;;;;3.10;2.30;;;;;;;;;;5052388;28;20035;-81
2023/08/06 03:29:16;;;;;;;2.50;1.95;;;;;;;;;;5052160;28;20413;-82
2023/08/06 03:31:42;;;;;;;2.42;2.03;;;;;;;;;;5053115;28;20114;-82
2023/08/06 03:34:07;;;;;;;2.20;2.00;;;;;;;;;;5052552;28;20040;-82
2023/08/06 03:36:33;;;;;;;2.30;2.10;;;;;;;;;;5052042;28;20033;-82
2023/08/06 03:38:58;;;;;;;2.40;2.00;;;;;;;;;;5051947;28;20052;-82
2023/08/06 03:41:23;;;;;;;2.13;2.00;;;;;;;;;;5052240;28;20018;-82
2023/08/06 03:43:49;;;;;;;5.10;3.28;;;;;;;;;;5053051;28;20032;-82
2023/08/06 03:46:14;;;;;;;4.07;3.25;;;;;;;;;;5052207;28;20383;-82
2023/08/06 03:48:39;;;;;;;3.65;3.17;;;;;;;;;;5052447;28;20325;-81
2023/08/06 03:51:05;;;;;;;2.60;2.38;;;;;;;;;;5053742;28;20033;-82
2023/08/06 03:53:30;;;;;;;2.40;2.20;;;;;;;;;;5052104;28;20383;-82
2023/08/06 03:55:59;;;;;;;3.33;3.03;;;;;;;;;;5054504;28;20028;-81
2023/08/06 03:58:25;;;;;;;3.47;2.95;;;;;;;;;;5056356;28;20025;-82
2023/08/06 04:01:01;;;;;;;3.15;2.50;;;;;;;;;;5057481;28;20075;-82
2023/08/06 04:03:26;;;;;;;3.92;2.63;;;;;;;;;;5056018;28;20020;-82
2023/08/06 04:05:52;;;;;;;2.80;2.53;;;;;;;;;;5057741;28;20551;-82
2023/08/06 04:08:17;;;;;;;2.38;2.17;;;;;;;;;;5057112;28;20029;-82
2023/08/06 04:10:43;;;;;;;2.92;2.10;;;;;;;;;;5056068;28;20417;-82
2023/08/06 04:13:08;;;;;;;2.33;2.13;;;;;;;;;;5055993;28;20093;-82
2023/08/06 04:15:34;;;;;;;4.13;3.55;;;;;;;;;;5055421;28;20053;-82
2023/08/06 04:17:59;;;;;;;2.65;2.45;;;;;;;;;;5056021;28;20033;-82
2023/08/06 04:20:25;;;;;;;2.42;2.13;;;;;;;;;;5057012;28;20372;-82
2023/08/06 04:22:50;;;;;;;2.35;2.15;;;;;;;;;;5055882;28;20070;-81
2023/08/06 04:25:20;;;;;;;2.05;1.88;;;;;;;;;;5057051;28;20108;-82
2023/08/06 04:27:49;;;;;;;2.25;2.05;;;;;;;;;;5055495;28;20132;-82
2023/08/06 04:30:14;;;;;;;2.47;2.10;;;;;;;;;;5056699;28;20480;-82
2023/08/06 04:32:40;;;;;;;3.47;2.08;;;;;;;;;;5055294;28;20048;-82
2023/08/06 04:35:05;;;;;;;2.67;2.35;;;;;;;;;;5055684;28;20036;-81
2023/08/06 04:37:31;;;;;;;2.85;2.60;;;;;;;;;;5055702;28;20029;-81
2023/08/06 04:39:56;;;;;;;3.25;2.90;;;;;;;;;;5038696;28;20060;-82
2023/08/06 04:42:22;;;;;;;4.38;3.70;;;;;;;;;;5056544;28;20025;-82
2023/08/06 04:44:47;;;;;;;3.25;2.95;;;;;;;;;;5056726;28;20108;-82
2023/08/06 04:47:12;;;;;;;3.63;3.33;;;;;;;;;;5056772;28;20029;-82
2023/08/06 04:49:38;;;;;;;3.40;3.10;;;;;;;;;;5055045;28;20040;-83
2023/08/06 04:52:03;;;;;;;3.55;3.25;;;;;;;;;;5055019;28;20085;-81
2023/08/06 04:54:29;;;;;;;4.28;3.88;;;;;;;;;;5056256;28;20033;-82
2023/08/06 04:56:54;;;;;;;3.42;2.90;;;;;;;;;;5056573;28;20029;-81
2023/08/06 04:59:20;;;;;;;5.68;3.40;;;;;;;;;;5056325;28;20029;-82
2023/08/06 05:01:45;;;;;;;2.42;2.22;;;;;;;;;;5054998;28;20025;-81
2023/08/06 05:04:10;;;;;;;3.20;2.47;;;;;;;;;;5054976;28;20090;-82
2023/08/06 05:06:38;;;;;;;4.75;3.67;;;;;;;;;;5055297;28;20051;-81
2023/08/06 05:09:03;;;;;;;4.18;3.40;;;;;;;;;;5054491;28;20037;-81
2023/08/06 05:11:29;;;;;;;3.60;2.88;;;;;;;;;;5054769;28;20025;-81
2023/08/06 05:13:54;;;;;;;3.70;3.40;;;;;;;;;;5056584;28;20430;-83
2023/08/06 05:16:19;;;;;;;4.47;3.40;;;;;;;;;;5055869;28;20115;-82
2023/08/06 05:18:45;;;;;;;2.30;2.10;;;;;;;;;;5054741;28;20032;-82
2023/08/06 05:21:10;;;;;;;3.80;3.22;;;;;;;;;;5054832;28;20040;-83
2023/08/06 05:23:36;;;;;;;3.13;2.90;;;;;;;;;;5054709;28;20029;-81
2023/08/06 05:26:01;;;;;;;3.80;3.40;;;;;;;;;;5056264;28;20024;-82
2023/08/06 05:28:27;;;;;;;3.22;2.90;;;;;;;;;;5055700;28;20045;-82
2023/08/06 05:30:52;;;;;;;3.47;2.25;;;;;;;;;;5055567;28;20115;-82
2023/08/06 05:33:17;;;;;;;4.65;3.03;;;;;;;;;;5054224;28;20475;-81
2023/08/06 05:35:43;;;;;;;3.92;2.75;;;;;;;;;;5054314;28;20032;-81
2023/08/06 05:38:08;;;;;;;4.07;3.67;;;;;;;;;;5055713;28;20357;-81
2023/08/06 05:40:34;;;;;;;2.88;2.63;;;;;;;;;;5055214;28;20025;-82
2023/08/06 05:42:59;;;;;;;4.15;3.33;;;;;;;;;;5037284;28;20446;-82
2023/08/06 05:45:25;;;;;;;6.00;3.10;;;;;;;;;;5054416;28;20468;-82
2023/08/06 05:47:50;;;;;;;2.45;2.25;;;;;;;;;;5055537;28;20033;-81
2023/08/06 05:50:15;;;;;;;3.00;2.58;;;;;;;;;;5055356;28;20043;-82
2023/08/06 05:52:41;;;;;;;2.60;2.40;;;;;;;;;;5055064;28;20032;-82
2023/08/06 05:55:07;;;;;;;2.90;2.60;;;;;;;;;;5054003;28;20090;-82
2023/08/06 05:57:32;;;;;;;3.08;2.75;;;;;;;;;;5055039;28;20068;-82
2023/08/06 05:59:57;;;;;;;2.65;2.45;;;;;;;;;;5053842;28;20446;-82
2023/08/06 06:02:23;;;;;;;2.90;2.60;;;;;;;;;;5054087;28;20071;-82
2023/08/06 06:04:48;;;;;;;3.28;2.97;;;;;;;;;;5037105;28;20029;-82
2023/08/06 06:07:14;;;;;;;2.85;2.65;;;;;;;;;;5037013;28;20029;-82
2023/08/06 06:09:39;;;;;;;2.67;2.47;;;;;;;;;;5055136;28;20400;-83
2023/08/06 06:12:06;;;;;;;3.13;2.85;;;;;;;;;;5054795;28;20033;-82
2023/08/06 06:14:31;;;;;;;3.03;2.72;;;;;;;;;;5053473;28;20079;-82
2023/08/06 06:16:57;;;;;;;2.80;2.58;;;;;;;;;;5053452;28;20028;-82
2023/08/06 06:19:22;;;;;;;2.92;2.63;;;;;;;;;;5054048;28;20031;-84
2023/08/06 06:21:47;;;;;;;2.47;2.28;;;;;;;;;;5053744;28;20422;-82
2023/08/06 06:24:13;;;;;;;2.20;2.00;;;;;;;;;;5053334;28;20124;-83
2023/08/06 06:26:38;;;;;;;2.50;2.30;;;;;;;;;;5053308;28;20060;-83
2023/08/06 06:29:04;;;;;;;1.90;1.80;;;;;;;;;;5054482;28;20028;-82
2023/08/06 06:31:29;;;;;;;3.00;2.70;;;;;;;;;;5053254;28;20041;-83
2023/08/06 06:33:55;;;;;;;2.83;2.53;;;;;;;;;;5053239;28;20021;-83
2023/08/06 06:36:20;;;;;;;4.03;2.58;;;;;;;;;;5053127;28;20060;-83
2023/08/06 06:38:46;;;;;;;3.17;2.80;;;;;;;;;;5053421;28;20096;-83
2023/08/06 06:41:11;;;;;;;3.50;2.53;;;;;;;;;;5054590;28;20040;-83
2023/08/06 06:43:38;;;;;;;3.88;2.90;;;;;;;;;;5036263;28;20076;-84
2023/08/06 06:46:03;;;;;;;3.53;2.42;;;;;;;;;;5053633;28;20502;-83
2023/08/06 06:48:31;;;;;;;2.30;2.10;;;;;;;;;;5054446;28;20060;-83
2023/08/06 06:50:56;;;;;;;2.60;2.25;;;;;;;;;;5054406;28;20124;-82
2023/08/06 06:53:28;;;;;;;2.65;2.45;;;;;;;;;;5052838;28;20474;-83
2023/08/06 06:56:02;;;;;;;4.82;2.85;;;;;;;;;;5053154;28;20022;-83
2023/08/06 06:58:27;;;;;;;;;;;;;;;;;;5036451;28;20411;-81
2023/08/06 07:00:52;;;;;;;3.33;2.43;;;;;;;;;;5054220;28;19915;-82
2023/08/06 07:03:19;;;;;;;4.82;2.45;;;;;;;;;;5053789;28;20335;-82
2023/08/06 07:05:45;;;;;;;2.13;1.90;;;;;;;;;;5052628;28;20028;-82
2023/08/06 07:08:11;;;;;;;2.50;2.30;;;;;;;;;;5053729;28;20107;-82
2023/08/06 07:10:36;;;;;;;3.17;2.65;;;;;;;;;;5054188;28;20040;-82
2023/08/06 07:13:02;;;;;;;3.05;2.28;;;;;;;;;;5053684;28;20040;-82
2023/08/06 07:15:27;;;;;;;3.03;2.70;;;;;;;;;;5053908;28;20025;-82
2023/08/06 07:17:52;;;;;;;2.63;2.42;;;;;;;;;;5053908;28;20031;-83
2023/08/06 07:20:18;;;;;;;4.65;2.53;;;;;;;;;;5053863;28;20024;-82
2023/08/06 07:22:44;;;;;;;3.10;2.80;;;;;;;;;;5053517;28;20079;-82
2023/08/06 07:25:09;;;;;;;2.75;2.40;;;;;;;;;;5052577;28;20032;-82
2023/08/06 07:27:35;;;;;;;3.45;2.58;;;;;;;;;;5053647;28;20036;-82
2023/08/06 07:30:00;;;;;;;2.83;2.55;;;;;;;;;;5051694;28;20053;-82
2023/08/06 07:32:27;;;;;;;1.88;1.77;;;;;;;;;;5052321;28;20112;-82
2023/08/06 07:34:56;;;;;;;3.00;2.72;;;;;;;;;;5052172;28;20035;-82
2023/08/06 07:37:22;;;;;;;3.92;3.05;;;;;;;;;;5052230;28;20124;-83
2023/08/06 07:39:48;;;;;;;2.95;2.67;;;;;;;;;;5053256;28;20107;-82
2023/08/06 07:42:14;;;;;;;2.33;2.10;;;;;;;;;;5052121;28;20079;-84
2023/08/06 07:44:39;;;;;;;4.13;2.78;;;;;;;;;;5052073;28;20028;-83
2023/08/06 07:47:05;;;;;;;3.38;3.03;;;;;;;;;;5053565;28;20112;-83
2023/08/06 07:49:30;;;;;;;4.57;3.47;;;;;;;;;;5085422;28;20056;-82
2023/08/06 07:51:55;;;;;;;4.22;3.10;;;;;;;;;;5035190;28;20029;-83
2023/08/06 07:54:21;;;;;;;3.30;3.00;;;;;;;;;;5053436;28;20085;-82
2023/08/06 07:56:47;;;;;;;3.00;2.80;;;;;;;;;;5053425;28;20499;-82
2023/08/06 07:59:12;;;;;;;3.08;2.70;;;;;;;;;;5035197;28;20370;-83
2023/08/06 08:01:37;;;;;;;3.10;2.80;;;;;;;;;;5053325;28;20036;-82
2023/08/06 08:04:04;;;;;;;3.90;3.08;;;;;;;;;;5052881;28;20025;-83
2023/08/06 08:06:29;;;;;;;3.67;3.28;;;;;;;;;;5035397;28;20036;-83
2023/08/06 08:08:55;;;;;;;4.38;2.60;;;;;;;;;;5053604;28;20029;-83
2023/08/06 08:11:20;;;;;;;5.10;3.20;;;;;;;;;;5053241;28;20029;-83
2023/08/06 08:13:46;;;;;;;3.78;3.38;;;;;;;;;;5052274;28;20029;-82
2023/08/06 08:16:11;;;;;;;2.78;2.58;;;;;;;;;;5051793;28;20033;-83
2023/08/06 08:18:36;;;;;;;3.50;3.05;;;;;;;;;;5053048;28;20033;-84
2023/08/06 08:21:02;;;;;;;6.07;3.40;;;;;;;;;;5051856;28;20047;-83
2023/08/06 08:23:28;;;;;;;3.60;3.00;;;;;;;;;;5052940;28;20442;-83
2023/08/06 08:25:53;;;;;;;5.55;3.80;;;;;;;;;;5051724;28;20033;-83
2023/08/06 08:28:19;;;;;;;3.92;3.53;;;;;;;;;;5051737;28;20025;-83
2023/08/06 08:30:44;;;;;;;4.35;3.42;;;;;;;;;;5051248;28;20076;-82
2023/08/06 08:33:10;;;;;;;3.80;3.40;;;;;;;;;;5051950;28;20037;-83
2023/08/06 08:35:36;;;;;;;4.55;3.42;;;;;;;;;;5053264;28;20040;-83
2023/08/06 08:38:02;;;;;;;4.15;3.75;;;;;;;;;;5051941;28;20021;-83
2023/08/06 08:40:31;;;;;;;3.90;3.50;;;;;;;;;;5053166;28;20032;-83
2023/08/06 08:42:57;;;;;;;4.95;3.97;;;;;;;;;;5036623;28;20118;-83
2023/08/06 08:45:26;;;;;;;5.05;3.83;;;;;;;;;;5055443;28;20032;-82
2023/08/06 08:47:52;;;;;;;5.65;3.75;;;;;;;;;;5055479;28;20029;-82
2023/08/06 08:50:19;;;;;;;5.38;3.42;;;;;;;;;;5056588;28;20098;-81
2023/08/06 08:52:45;;;;;;;4.97;4.45;;;;;;;;;;5055698;28;20032;-83
2023/08/06 08:55:12;;;;;;;4.72;4.22;;;;;;;;;;5056467;28;20025;-82
2023/08/06 08:57:37;;;;;;;5.03;4.10;;;;;;;;;;5055330;28;20037;-82
2023/08/06 09:00:04;;;;;;;4.10;3.67;;;;;;;;;;5056264;28;20372;-84
2023/08/06 09:02:31;;;;;;;4.82;3.78;;;;;;;;;;5056368;28;20060;-82
2023/08/06 09:05:02;;;;;;;4.60;4.20;;;;;;;;;;5056248;28;20032;-81
2023/08/06 09:07:31;;;;;;;4.75;4.25;;;;;;;;;;5056770;28;20035;-82
2023/08/06 09:09:57;;;;;;;3.80;3.50;;;;;;;;;;5056585;28;20078;-81
2023/08/06 09:12:22;;;;;;;4.20;3.80;;;;;;;;;;5056081;28;20032;-81
2023/08/06 09:14:48;;;;;;;3.60;3.30;;;;;;;;;;5056350;28;20032;-82
2023/08/06 09:17:13;;;;;;;4.97;3.33;;;;;;;;;;5055191;28;20463;-82
2023/08/06 09:19:45;;;;;;;5.50;3.65;;;;;;;;;;5054709;28;20056;-82
2023/08/06 09:22:13;;;;;;;7.32;4.82;;;;;;;;;;5055095;28;20024;-82
2023/08/06 09:24:42;;;;;;;4.15;3.75;;;;;;;;;;5038059;28;20056;-82
2023/08/06 09:27:14;;;;;;;5.35;3.90;;;;;;;;;;5037856;28;20036;-81
2023/08/06 09:29:44;;;;;;;7.57;4.20;;;;;;;;;;5053995;28;20033;-81
2023/08/06 09:32:13;;;;;;;4.85;4.22;;;;;;;;;;5036929;28;20037;-82
2023/08/06 09:34:40;;;;;;;4.82;3.40;;;;;;;;;;5037169;28;20391;-82
2023/08/06 09:37:05;;;;;;;6.22;5.20;;;;;;;;;;5053831;28;20021;-81
2023/08/06 09:39:31;;;;;;;6.30;4.18;;;;;;;;;;5053593;28;20024;-82
2023/08/06 09:42:01;;;;;;;3.83;3.53;;;;;;;;;;5054979;28;20025;-81
2023/08/06 09:44:28;;;;;;;4.93;2.75;;;;;;;;;;5070114;28;20033;-81
2023/08/06 09:46:55;;;;;;;3.22;2.92;;;;;;;;;;5053626;28;20024;-81
2023/08/06 09:49:25;;;;;;;3.67;2.97;;;;;;;;;;5036876;28;20063;-81
2023/08/06 09:51:53;;;;;;;7.13;2.90;;;;;;;;;;5053362;28;20036;-82
2023/08/06 09:54:19;;;;;;;3.10;2.67;;;;;;;;;;5054534;28;20387;-83
2023/08/06 09:56:44;;;;;;;5.85;2.67;;;;;;;;;;5036956;28;20033;-82
2023/08/06 09:59:13;;;;;;;2.42;2.25;;;;;;;;;;5054368;28;20044;-84
2023/08/06 10:01:38;;;;;;;3.15;1.80;;;;;;;;;;5086818;28;20107;-83
2023/08/06 10:04:07;;;;;;;3.25;1.95;;;;;;;;;;5053261;28;20457;-84
2023/08/06 10:06:36;;;;;;;2.80;2.30;;;;;;;;;;5036826;28;20468;-83
2023/08/06 10:09:02;;;;;;;2.65;2.17;;;;;;;;;;5053043;28;20087;-82
2023/08/06 10:11:28;;;;;;;2.28;2.08;;;;;;;;;;5036300;28;20457;-84
2023/08/06 10:14:13;;;;;;;2.67;2.47;;;;;;;;;;5053069;28;20021;-83
2023/08/06 10:16:39;;;;;;;1.85;1.70;;;;;;;;;;5053138;28;20025;-83
2023/08/06 10:19:07;;;;;;;1.80;1.70;;;;;;;;;;5053023;28;20024;-84
2023/08/06 10:21:32;;;;;;;1.77;1.67;;;;;;;;;;5053094;28;20029;-83
2023/08/06 10:23:58;;;;;;;1.55;1.20;;;;;;;;;;5036184;28;20119;-83
2023/08/06 10:26:27;;;;;;;1.85;1.38;;;;;;;;;;5052790;28;20482;-83
2023/08/06 10:28:53;;;;;;;2.45;1.90;;;;;;;;;;5053798;28;20502;-82
2023/08/06 10:31:18;;;;;;;1.88;1.63;;;;;;;;;;5052681;28;20049;-82
2023/08/06 10:33:47;;;;;;;2.95;2.60;;;;;;;;;;5036107;28;20056;-82
2023/08/06 10:36:14;;;;;;;2.10;1.88;;;;;;;;;;5036197;28;20110;-82
2023/08/06 10:38:49;;;;;;;4.07;1.75;;;;;;;;;;5052821;28;20029;-82
2023/08/06 10:41:24;;;;;;;2.17;1.63;;;;;;;;;;5052494;28;20486;-82
2023/08/06 10:43:49;;;;;;;2.10;1.88;;;;;;;;;;5035768;28;20103;-81
2023/08/06 10:46:33;;;;;;;2.42;1.77;;;;;;;;;;5035838;28;20495;-82
2023/08/06 10:48:58;;;;;;;1.90;1.65;;;;;;;;;;5053640;28;20483;-81
2023/08/06 10:51:23;;;;;;;1.73;1.63;;;;;;;;;;5052357;28;20048;-81
2023/08/06 10:53:50;;;;;;;2.00;1.80;;;;;;;;;;5052293;28;20391;-81
2023/08/06 10:56:19;;;;;;;3.10;1.58;;;;;;;;;;5035443;28;20029;-81
2023/08/06 10:58:46;;;;;;;1.83;1.73;;;;;;;;;;5035327;28;20116;-82
2023/08/06 11:01:12;;;;;;;1.67;1.58;;;;;;;;;;5052179;28;20082;-82
2023/08/06 11:03:38;;;;;;;1.52;1.40;;;;;;;;;;5035420;28;20029;-82
2023/08/06 11:06:05;;;;;;;1.65;1.30;;;;;;;;;;5034819;28;20100;-82
2023/08/06 11:08:34;;;;;;;3.55;1.58;;;;;;;;;;5053335;28;20446;-82
2023/08/06 11:11:13;;;;;;;2.03;1.70;;;;;;;;;;5051932;28;20021;-82
2023/08/06 11:13:48;;;;;;;2.50;1.60;;;;;;;;;;5051738;28;20075;-83
2023/08/06 11:16:17;;;;;;;2.72;1.83;;;;;;;;;;5051982;28;20479;-82
2023/08/06 11:18:43;;;;;;;1.50;1.40;;;;;;;;;;5051817;28;20035;-82
2023/08/06 11:21:08;;;;;;;1.70;1.60;;;;;;;;;;5051849;28;20115;-82
2023/08/06 11:23:35;;;;;;;2.55;1.30;;;;;;;;;;5052122;28;20047;-82
2023/08/06 11:26:00;;;;;;;3.00;2.10;;;;;;;;;;5051782;28;20028;-82
2023/08/06 11:28:26;;;;;;;6.53;3.88;;;;;;;;;;5053002;28;20032;-81
2023/08/06 11:30:52;;;;;;;4.68;3.20;;;;;;;;;;5051679;28;20057;-82
2023/08/06 11:33:22;;;;;;;3.50;2.47;;;;;;;;;;5035008;28;20102;-83
2023/08/06 11:35:48;;;;;;;4.07;3.25;;;;;;;;;;5051620;28;20418;-82
2023/08/06 11:38:14;;;;;;;3.85;2.97;;;;;;;;;;5053069;28;20479;-82
2023/08/06 11:40:39;;;;;;;3.72;3.20;;;;;;;;;;5034912;28;20040;-83
2023/08/06 11:43:09;;;;;;;3.28;2.30;;;;;;;;;;5051495;28;20025;-83
2023/08/06 11:45:35;;;;;;;2.60;2.10;;;;;;;;;;5051276;28;20029;-82
2023/08/06 11:48:01;;;;;;;3.20;2.60;;;;;;;;;;5051850;28;20025;-83
2023/08/06 11:50:27;;;;;;;2.67;2.40;;;;;;;;;;5052975;28;20033;-82
2023/08/06 11:53:00;;;;;;;2.42;2.22;;;;;;;;;;5051589;28;20037;-83
2023/08/06 11:55:26;;;;;;;2.38;1.80;;;;;;;;;;5051798;28;20071;-83
2023/08/06 11:57:51;;;;;;;2.97;2.17;;;;;;;;;;5035351;28;20029;-82
2023/08/06 12:00:19;;;;;;;4.30;1.90;;;;;;;;;;5053249;28;20052;-83
2023/08/06 12:02:46;;;;;;;2.03;1.75;;;;;;;;;;5053433;28;20079;-84
2023/08/06 12:05:15;;;;;;;2.10;1.90;;;;;;;;;;5052350;28;20360;-83
2023/08/06 12:07:42;;;;;;;1.92;1.77;;;;;;;;;;5052110;28;20086;-83
2023/08/06 12:10:10;;;;;;;8.35;2.00;;;;;;;;;;5053765;28;20032;-83
2023/08/06 12:12:36;;;;;;;1.92;1.73;;;;;;;;;;5035608;28;20037;-83
2023/08/06 12:15:03;;;;;;;2.55;1.67;;;;;;;;;;5052354;28;20017;-83
2023/08/06 12:17:28;;;;;;;8.57;5.25;;;;;;;;;;5053981;28;20037;-85
2023/08/06 12:19:54;;;;;;;3.83;2.67;;;;;;;;;;5056394;28;20392;-83
2023/08/06 12:22:19;;;;;;;2.40;2.03;;;;;;;;;;5055718;28;20033;-83
2023/08/06 12:24:46;;;;;;;2.60;2.10;;;;;;;;;;5039420;28;20035;-83
2023/08/06 12:27:12;;;;;;;2.55;1.92;;;;;;;;;;5056537;28;20033;-83
2023/08/06 12:29:41;;;;;;;3.85;1.98;;;;;;;;;;5056581;28;20033;-84
2023/08/06 12:32:07;;;;;;;2.65;1.88;;;;;;;;;;5056823;28;20446;-84
2023/08/06 12:34:32;;;;;;;2.53;1.67;;;;;;;;;;5056847;28;20091;-84
2023/08/06 12:36:58;;;;;;;3.63;1.80;;;;;;;;;;5056545;28;20478;-84
2023/08/06 12:39:23;;;;;;;2.00;1.80;;;;;;;;;;5057330;28;20028;-84
2023/08/06 12:41:49;;;;;;;2.88;1.80;;;;;;;;;;5056025;28;20062;-83
2023/08/06 12:44:14;;;;;;;1.98;1.60;;;;;;;;;;5056527;28;20029;-84
2023/08/06 12:46:40;;;;;;;2.45;1.90;;;;;;;;;;5056958;28;20033;-84
2023/08/06 12:49:05;;;;;;;2.50;1.95;;;;;;;;;;5056632;28;20063;-83
2023/08/06 12:51:31;;;;;;;2.90;1.90;;;;;;;;;;5055527;28;20052;-83
2023/08/06 12:53:56;;;;;;;3.40;2.20;;;;;;;;;;5056165;28;20050;-84
2023/08/06 12:56:21;;;;;;;5.18;2.78;;;;;;;;;;5057142;28;20531;-84
2023/08/06 12:58:47;;;;;;;3.25;2.28;;;;;;;;;;5038844;28;20032;-85
2023/08/06 13:01:12;;;;;;;5.68;2.65;;;;;;;;;;5057895;28;20155;-84
2023/08/06 13:03:37;;;;;;;4.35;2.53;;;;;;;;;;5055931;28;20371;-83
2023/08/06 13:06:03;;;;;;;5.15;3.30;;;;;;;;;;5042548;28;20123;-82
2023/08/06 13:08:29;;;;;;;5.88;3.40;;;;;;;;;;5056903;28;20037;-82
2023/08/06 13:10:55;;;;;;;4.95;2.53;;;;;;;;;;5057866;28;20029;-83
2023/08/06 13:13:21;;;;;;;3.53;2.35;;;;;;;;;;5057281;28;20059;-83
2023/08/06 13:15:46;;;;;;;4.15;2.67;;;;;;;;;;5056808;28;20056;-83
2023/08/06 13:18:11;;;;;;;4.60;2.40;;;;;;;;;;5056484;28;20384;-83
2023/08/06 13:20:40;;;;;;;2.60;2.03;;;;;;;;;;5055145;28;20036;-85
2023/08/06 13:23:05;;;;;;;3.28;2.03;;;;;;;;;;5055081;28;20484;-84
2023/08/06 13:25:36;;;;;;;3.25;1.85;;;;;;;;;;5055232;28;20051;-83
2023/08/06 13:28:02;;;;;;;3.85;2.15;;;;;;;;;;5038244;28;20057;-84
2023/08/06 13:30:27;;;;;;;2.55;2.10;;;;;;;;;;5054927;28;20060;-84
2023/08/06 13:32:52;;;;;;;2.63;1.77;;;;;;;;;;5054870;28;20494;-84
2023/08/06 13:35:18;;;;;;;2.22;1.70;;;;;;;;;;5056196;28;20060;-84
2023/08/06 13:37:43;;;;;;;3.08;1.90;;;;;;;;;;5038245;28;20033;-84
2023/08/06 13:40:09;;;;;;;2.45;1.65;;;;;;;;;;5055905;28;20036;-84
2023/08/06 13:42:34;;;;;;;2.53;1.83;;;;;;;;;;5055928;28;20027;-84
2023/08/06 13:45:03;;;;;;;2.50;1.77;;;;;;;;;;5055276;28;20468;-84
2023/08/06 13:47:29;;;;;;;3.10;1.80;;;;;;;;;;5056020;28;20033;-84
2023/08/06 13:49:54;;;;;;;2.30;1.50;;;;;;;;;;5060617;28;20125;-84
2023/08/06 13:52:20;;;;;;;1.55;1.45;;;;;;;;;;5055608;28;20020;-83
2023/08/06 13:54:46;;;;;;;2.25;1.50;;;;;;;;;;5054322;28;20036;-84
2023/08/06 13:57:11;;;;;;;1.88;1.40;;;;;;;;;;5037485;28;20025;-84
2023/08/06 13:59:38;;;;;;;2.58;1.70;;;;;;;;;;5054025;28;20546;-84
2023/08/06 14:02:03;;;;;;;2.15;1.60;;;;;;;;;;5057781;28;20361;-83
2023/08/06 14:04:28;;;;;;;2.47;1.48;;;;;;;;;;5037844;28;20039;-83
2023/08/06 14:06:54;;;;;;;1.83;1.48;;;;;;;;;;5054246;28;20039;-83
2023/08/06 14:09:19;;;;;;;1.48;1.35;;;;;;;;;;5054233;28;20392;-83
2023/08/06 14:11:45;;;;;;;1.90;1.70;;;;;;;;;;5055424;28;20053;-82
2023/08/06 14:14:11;;;;;;;1.50;1.30;;;;;;;;;;5054606;28;20037;-83
2023/08/06 14:16:36;;;;;;;1.92;1.60;;;;;;;;;;5037264;28;20025;-83
2023/08/06 14:19:02;;;;;;;1.75;1.42;;;;;;;;;;5053800;28;20040;-83
2023/08/06 14:21:27;;;;;;;2.00;1.27;;;;;;;;;;5055721;28;20033;-83
2023/08/06 14:23:53;;;;;;;2.50;1.50;;;;;;;;;;5054892;28;20036;-83
2023/08/06 14:26:18;;;;;;;1.65;1.40;;;;;;;;;;5055275;28;20073;-83
2023/08/06 14:28:44;;;;;;;2.97;1.40;;;;;;;;;;5055217;28;20082;-83
2023/08/06 14:31:09;;;;;;;2.45;1.23;;;;;;;;;;5056966;28;20126;-83
2023/08/06 14:33:34;;;;;;;3.33;1.50;;;;;;;;;;5055377;28;20545;-83
2023/08/06 14:36:00;;;;;;;2.67;1.50;;;;;;;;;;5053861;28;20415;-83
2023/08/06 14:38:25;;;;;;;1.75;1.40;;;;;;;;;;5053747;28;20060;-83